createdAt,value
2018-02-04T00:00:18.634Z,16.13
2018-02-04T00:02:46.191Z,15.97
2018-02-04T00:05:13.750Z,13.13
2018-02-04T00:07:41.243Z,16.10
2018-02-04T00:10:08.766Z,13.60
2018-02-04T00:12:36.224Z,12.00
2018-02-04T00:15:03.715Z,17.00
2018-02-04T00:17:31.240Z,15.17
2018-02-04T00:19:59.632Z,13.33
2018-02-04T00:22:33.118Z,15.70
2018-02-04T00:25:00.882Z,16.00
2018-02-04T00:27:28.339Z,16.23
2018-02-04T00:29:55.898Z,17.30
2018-02-04T00:32:23.458Z,14.57
2018-02-04T00:34:50.953Z,15.53
2018-02-04T00:37:18.475Z,15.23
2018-02-04T00:39:45.976Z,16.40
2018-02-04T00:42:13.424Z,17.57
2018-02-04T00:44:40.939Z,14.40
2018-02-04T00:47:08.508Z,16.40
2018-02-04T00:49:36.000Z,15.70
2018-02-04T00:52:03.524Z,15.97
2018-02-04T00:54:31.083Z,16.40
2018-02-04T00:56:58.578Z,13.60
2018-02-04T00:59:26.099Z,14.33
2018-02-04T01:01:53.632Z,11.60
2018-02-04T01:04:21.218Z,10.97
2018-02-04T01:06:48.676Z,9.53
2018-02-04T01:09:16.236Z,12.67
2018-02-04T01:11:43.795Z,10.20
2018-02-04T01:14:11.354Z,11.00
2018-02-04T01:16:38.844Z,14.50
2018-02-04T01:19:06.270Z,11.03
2018-02-04T01:21:33.827Z,10.10
2018-02-04T01:24:01.388Z,12.13
2018-02-04T01:26:28.844Z,12.10
2018-02-04T01:28:56.405Z,12.97
2018-02-04T01:31:23.896Z,12.13
2018-02-04T01:33:51.312Z,10.40
2018-02-04T01:36:18.878Z,8.43
2018-02-04T01:38:46.380Z,11.80
2018-02-04T01:41:13.893Z,9.30
2018-02-04T01:43:41.385Z,9.67
2018-02-04T01:46:08.910Z,9.67
2018-02-04T01:48:36.469Z,11.83
2018-02-04T01:51:03.959Z,8.10
2018-02-04T01:53:31.353Z,8.57
2018-02-04T01:55:58.840Z,7.63
2018-02-04T01:58:26.399Z,10.30
2018-02-04T02:00:53.857Z,8.60
2018-02-04T02:03:21.416Z,12.90
2018-02-04T02:05:49.181Z,9.67
2018-02-04T02:08:16.577Z,10.10
2018-02-04T02:10:44.196Z,12.80
2018-02-04T02:13:11.689Z,9.60
2018-02-04T02:15:39.418Z,8.87
2018-02-04T02:18:06.815Z,10.30
2018-02-04T02:20:34.434Z,12.10
2018-02-04T02:23:01.993Z,11.93
2018-02-04T02:25:29.553Z,12.00
2018-02-04T02:27:57.011Z,10.40
2018-02-04T02:30:24.444Z,11.37
2018-02-04T02:32:51.972Z,14.23
2018-02-04T02:35:19.484Z,18.83
2018-02-04T02:37:46.976Z,14.23
2018-02-04T02:40:14.500Z,13.00
2018-02-04T02:42:42.067Z,14.77
2018-02-04T02:45:09.619Z,12.83
2018-02-04T02:47:37.179Z,14.50
2018-02-04T02:50:04.738Z,13.90
2018-02-04T02:52:32.141Z,12.03
2018-02-04T02:54:59.754Z,12.00
2018-02-04T02:57:27.314Z,12.67
2018-02-04T02:59:54.770Z,13.93
2018-02-04T03:02:25.401Z,14.03
2018-02-04T03:04:52.962Z,12.83
2018-02-04T03:07:20.522Z,12.50
2018-02-04T03:09:48.184Z,16.33
2018-02-04T03:12:15.677Z,12.97
2018-02-04T03:14:43.132Z,11.70
2018-02-04T03:17:10.656Z,14.00
2018-02-04T03:19:38.216Z,13.13
2018-02-04T03:22:05.775Z,11.93
2018-02-04T03:24:34.156Z,12.80
2018-02-04T03:27:01.714Z,13.40
2018-02-04T03:29:29.273Z,14.43
2018-02-04T03:31:56.832Z,13.07
2018-02-04T03:34:24.290Z,13.53
2018-02-04T03:36:51.780Z,11.50
2018-02-04T03:39:19.306Z,14.77
2018-02-04T03:41:46.865Z,13.23
2018-02-04T03:44:14.425Z,10.83
2018-02-04T03:46:41.916Z,12.40
2018-02-04T03:49:09.384Z,11.17
2018-02-04T03:51:36.780Z,13.00
2018-02-04T03:54:04.252Z,10.97
2018-02-04T03:56:31.812Z,11.37
2018-02-04T03:58:59.371Z,12.67
2018-02-04T04:01:26.864Z,15.40
2018-02-04T04:03:54.388Z,13.60
2018-02-04T04:06:21.948Z,13.30
2018-02-04T04:08:49.507Z,13.27
2018-02-04T04:11:17.270Z,13.60
2018-02-04T04:13:44.831Z,11.00
2018-02-04T04:16:12.389Z,11.50
2018-02-04T04:18:39.950Z,12.50
2018-02-04T04:21:07.407Z,13.67
2018-02-04T04:23:34.966Z,14.20
2018-02-04T04:26:02.525Z,11.10
2018-02-04T04:28:30.085Z,12.90
2018-02-04T04:30:57.644Z,15.10
2018-02-04T04:33:25.203Z,15.03
2018-02-04T04:35:52.762Z,14.67
2018-02-04T04:38:20.322Z,13.17
2018-02-04T04:40:47.715Z,13.50
2018-02-04T04:43:15.139Z,13.93
2018-02-04T04:45:42.623Z,12.90
2018-02-04T04:48:10.150Z,13.83
2018-02-04T04:50:37.710Z,13.17
2018-02-04T04:53:05.269Z,13.77
2018-02-04T04:55:32.726Z,19.23
2018-02-04T04:58:00.160Z,25.07
2018-02-04T05:00:27.677Z,19.27
2018-02-04T05:02:55.200Z,13.53
2018-02-04T05:05:22.759Z,14.87
2018-02-04T05:07:50.216Z,13.13
2018-02-04T05:10:17.776Z,14.27
2018-02-04T05:12:45.446Z,14.53
2018-02-04T05:15:13.002Z,15.20
2018-02-04T05:17:40.558Z,12.90
2018-02-04T05:20:08.152Z,13.60
2018-02-04T05:22:35.676Z,13.53
2018-02-04T05:25:03.235Z,14.10
2018-02-04T05:27:30.655Z,20.27
2018-02-04T05:29:58.149Z,13.07
2018-02-04T05:32:25.640Z,14.20
2018-02-04T05:34:53.041Z,13.57
2018-02-04T05:37:20.580Z,17.60
2018-02-04T05:39:48.182Z,12.67
2018-02-04T05:42:15.741Z,13.17
2018-02-04T05:44:43.181Z,15.90
2018-02-04T05:47:10.655Z,17.83
2018-02-04T05:49:38.216Z,14.67
2018-02-04T05:52:05.775Z,17.77
2018-02-04T05:54:33.333Z,16.03
2018-02-04T05:57:00.893Z,18.10
2018-02-04T05:59:28.350Z,14.80
2018-02-04T06:01:55.909Z,16.30
2018-02-04T06:04:23.469Z,15.33
2018-02-04T06:06:51.028Z,14.87
2018-02-04T06:09:18.588Z,15.20
2018-02-04T06:11:46.044Z,13.07
2018-02-04T06:14:13.605Z,14.80
2018-02-04T06:16:41.165Z,18.60
2018-02-04T06:19:08.723Z,14.00
2018-02-04T06:21:36.283Z,14.60
2018-02-04T06:24:03.842Z,17.50
2018-02-04T06:26:31.401Z,15.80
2018-02-04T06:28:59.063Z,16.20
2018-02-04T06:31:26.623Z,14.70
2018-02-04T06:33:54.183Z,16.20
2018-02-04T06:36:21.620Z,17.50
2018-02-04T06:38:49.200Z,15.90
2018-02-04T06:41:16.759Z,15.53
2018-02-04T06:43:44.317Z,15.27
2018-02-04T06:46:11.774Z,16.80
2018-02-04T06:48:39.175Z,16.20
2018-02-04T06:51:06.829Z,20.10
2018-02-04T06:53:34.304Z,19.37
2018-02-04T06:56:01.807Z,21.40
2018-02-04T06:58:29.468Z,16.90
2018-02-04T07:00:56.926Z,18.20
2018-02-04T07:03:24.485Z,17.97
2018-02-04T07:05:51.943Z,17.07
2018-02-04T07:08:19.502Z,17.43
2018-02-04T07:10:47.061Z,24.43
2018-02-04T07:13:14.621Z,18.07
2018-02-04T07:15:42.181Z,13.70
2018-02-04T07:18:09.740Z,16.70
2018-02-04T07:20:37.144Z,17.67
2018-02-04T07:23:04.859Z,20.13
2018-02-04T07:25:32.418Z,20.93
2018-02-04T07:27:59.978Z,19.90
2018-02-04T07:30:27.536Z,14.10
2018-02-04T07:32:54.995Z,14.40
2018-02-04T07:35:22.554Z,16.13
2018-02-04T07:37:50.112Z,14.43
2018-02-04T07:40:17.673Z,11.53
2018-02-04T07:42:45.232Z,15.33
2018-02-04T07:45:12.690Z,16.47
2018-02-04T07:47:40.197Z,14.33
2018-02-04T07:50:07.808Z,13.93
2018-02-04T07:52:35.370Z,15.70
2018-02-04T07:55:02.926Z,15.00
2018-02-04T07:57:30.486Z,12.90
2018-02-04T07:59:58.049Z,12.00
2018-02-04T08:02:25.642Z,16.30
2018-02-04T08:04:53.165Z,13.43
2018-02-04T08:07:20.724Z,15.00
2018-02-04T08:09:48.216Z,13.60
2018-02-04T08:12:15.638Z,13.47
2018-02-04T08:14:43.065Z,12.53
2018-02-04T08:17:10.588Z,15.60
2018-02-04T08:19:38.111Z,18.23
2018-02-04T08:22:05.670Z,14.40
2018-02-04T08:24:33.230Z,19.80
2018-02-04T08:27:00.789Z,12.87
2018-02-04T08:29:28.349Z,14.23
2018-02-04T08:31:55.909Z,17.00
2018-02-04T08:34:23.468Z,21.93
2018-02-04T08:36:51.028Z,21.93
2018-02-04T08:39:18.520Z,22.50
2018-02-04T08:41:46.044Z,18.00
2018-02-04T08:44:13.541Z,25.87
2018-02-04T08:46:41.163Z,17.93
2018-02-04T08:49:09.055Z,25.90
2018-02-04T08:51:36.590Z,28.03
2018-02-04T08:54:04.253Z,32.47
2018-02-04T08:56:31.810Z,30.63
2018-02-04T08:58:59.369Z,28.77
2018-02-04T09:01:26.792Z,29.77
2018-02-04T09:03:54.359Z,30.33
2018-02-04T09:06:21.892Z,34.20
2018-02-04T09:08:49.402Z,34.20
2018-02-04T09:11:16.962Z,35.33
2018-02-04T09:13:44.521Z,38.83
2018-02-04T09:16:12.081Z,32.80
2018-02-04T09:18:39.640Z,28.93
2018-02-04T09:21:07.135Z,32.23
2018-02-04T09:23:34.592Z,33.80
2018-02-04T09:26:02.012Z,33.57
2018-02-04T09:28:29.573Z,32.80
2018-02-04T09:30:57.334Z,33.40
2018-02-04T09:33:24.895Z,34.43
2018-02-04T09:35:52.453Z,33.20
2018-02-04T09:38:19.878Z,35.63
2018-02-04T09:40:47.470Z,27.83
2018-02-04T09:43:15.031Z,27.20
2018-02-04T09:45:42.486Z,27.20
2018-02-04T09:48:09.945Z,24.73
2018-02-04T09:50:37.504Z,26.10
2018-02-04T09:53:05.066Z,26.60
2018-02-04T09:55:32.623Z,29.40
2018-02-04T09:58:00.182Z,24.73
2018-02-04T10:00:27.741Z,25.00
2018-02-04T10:02:55.300Z,31.00
2018-02-04T10:05:22.860Z,24.90
2018-02-04T10:07:50.468Z,26.17
2018-02-04T10:10:17.919Z,25.20
2018-02-04T10:12:45.435Z,25.97
2018-02-04T10:15:12.995Z,19.60
2018-02-04T10:17:40.606Z,21.40
2018-02-04T10:20:08.148Z,19.70
2018-02-04T10:22:35.674Z,21.87
2018-02-04T10:25:03.541Z,19.00
2018-02-04T10:27:31.509Z,19.20
2018-02-04T10:29:59.004Z,23.77
2018-02-04T10:32:26.525Z,17.73
2018-02-04T10:34:54.021Z,16.23
2018-02-04T10:37:21.546Z,14.07
2018-02-04T10:39:49.101Z,13.67
2018-02-04T10:42:16.661Z,14.30
2018-02-04T10:44:44.151Z,15.60
2018-02-04T10:47:11.678Z,16.87
2018-02-04T10:49:39.080Z,15.20
2018-02-04T10:52:06.484Z,13.07
2018-02-04T10:54:34.048Z,15.53
2018-02-04T10:57:01.608Z,13.53
2018-02-04T10:59:29.168Z,12.70
2018-02-04T11:01:56.727Z,14.07
2018-02-04T11:04:24.286Z,12.37
2018-02-04T11:06:51.848Z,12.33
2018-02-04T11:09:19.408Z,13.93
2018-02-04T11:11:47.067Z,11.30
2018-02-04T11:14:14.626Z,10.37
2018-02-04T11:16:42.131Z,9.80
2018-02-04T11:19:09.645Z,11.13
2018-02-04T11:21:37.100Z,9.27
2018-02-04T11:24:04.704Z,9.40
2018-02-04T11:26:32.097Z,8.33
2018-02-04T11:28:59.613Z,11.20
2018-02-04T11:31:27.045Z,7.73
2018-02-04T11:33:54.589Z,12.13
2018-02-04T11:36:22.148Z,9.90
2018-02-04T11:38:49.708Z,8.73
2018-02-04T11:41:17.168Z,9.73
2018-02-04T11:43:44.725Z,9.80
2018-02-04T11:46:12.285Z,10.10
2018-02-04T11:51:06.544Z,7.73
2018-02-04T11:53:34.042Z,7.70
2018-02-04T11:56:01.537Z,11.60
2018-02-04T11:58:29.058Z,10.60
2018-02-04T12:00:56.617Z,7.15
2018-02-04T12:03:24.176Z,10.20
2018-02-04T12:05:51.633Z,9.25
2018-02-04T12:08:19.136Z,8.15
2018-02-04T12:10:46.593Z,7.90
2018-02-04T12:13:14.107Z,7.40
2018-02-04T12:15:45.455Z,8.90
2018-02-04T12:18:13.017Z,6.10
2018-02-04T12:20:40.574Z,7.20
2018-02-04T12:23:07.995Z,6.07
2018-02-04T12:25:35.524Z,8.40
2018-02-04T12:28:02.981Z,7.27
2018-02-04T12:30:30.380Z,7.90
2018-02-04T12:32:57.962Z,7.53
2018-02-04T12:35:25.453Z,8.43
2018-02-04T12:37:52.982Z,8.30
2018-02-04T12:40:20.541Z,7.90
2018-02-04T12:42:48.098Z,6.47
2018-02-04T12:45:15.496Z,9.37
2018-02-04T12:47:43.011Z,8.70
2018-02-04T12:50:10.569Z,8.55
2018-02-04T12:52:38.060Z,9.40
2018-02-04T12:55:05.587Z,8.47
2018-02-04T12:57:33.146Z,8.60
2018-02-04T13:00:00.537Z,7.87
2018-02-04T13:02:27.931Z,8.80
2018-02-04T13:04:55.343Z,8.93
2018-02-04T13:07:22.872Z,8.80
2018-02-04T13:09:50.431Z,8.50
2018-02-04T13:12:17.990Z,9.67
2018-02-04T13:14:45.553Z,6.23
2018-02-04T13:17:13.219Z,6.25
2018-02-04T13:19:40.704Z,5.87
2018-02-04T13:22:08.229Z,10.00
2018-02-04T13:24:35.790Z,9.50
2018-02-04T13:27:03.280Z,7.60
2018-02-04T13:29:30.804Z,8.70
2018-02-04T13:31:58.196Z,9.20
2018-02-04T13:34:25.719Z,9.43
2018-02-04T13:36:53.278Z,8.27
2018-02-04T13:39:20.771Z,9.50
2018-02-04T13:41:48.314Z,9.10
2018-02-04T13:44:15.752Z,9.83
2018-02-04T13:46:43.200Z,9.83
2018-02-04T13:49:10.769Z,11.90
2018-02-04T13:51:38.430Z,8.07
2018-02-04T13:54:05.989Z,9.20
2018-02-04T13:56:33.549Z,8.27
2018-02-04T13:59:00.985Z,10.80
2018-02-04T14:01:28.462Z,9.03
2018-02-04T14:03:56.023Z,9.43
2018-02-04T14:06:23.582Z,7.47
2018-02-04T14:08:51.157Z,8.83
2018-02-04T14:11:18.631Z,9.97
2018-02-04T14:13:46.261Z,9.13
2018-02-04T14:16:13.820Z,8.53
2018-02-04T14:18:41.265Z,6.97
2018-02-04T14:21:08.768Z,8.30
2018-02-04T14:23:36.167Z,10.00
2018-02-04T14:26:03.751Z,10.30
2018-02-04T14:28:31.244Z,10.60
2018-02-04T14:30:58.701Z,11.03
2018-02-04T14:33:26.224Z,9.20
2018-02-04T14:35:53.721Z,10.23
2018-02-04T14:38:21.446Z,9.90
2018-02-04T14:40:48.936Z,10.33
2018-02-04T14:43:16.399Z,16.50
2018-02-04T14:45:43.953Z,11.37
2018-02-04T14:48:11.481Z,9.40
2018-02-04T14:50:39.038Z,10.20
2018-02-04T14:53:06.597Z,15.33
2018-02-04T14:55:34.095Z,11.43
2018-02-04T14:58:01.614Z,15.53
2018-02-04T15:00:29.379Z,11.60
2018-02-04T15:02:56.895Z,11.77
2018-02-04T15:05:24.394Z,11.67
2018-02-04T15:07:51.956Z,13.33
2018-02-04T15:10:19.513Z,13.00
2018-02-04T15:12:47.074Z,12.80
2018-02-04T15:15:14.632Z,15.40
2018-02-04T15:17:42.191Z,14.83
2018-02-04T15:20:09.752Z,16.90
2018-02-04T15:22:37.243Z,16.70
2018-02-04T15:25:04.870Z,16.67
2018-02-04T15:27:32.365Z,16.17
2018-02-04T15:29:59.886Z,20.20
2018-02-04T15:32:27.446Z,19.60
2018-02-04T15:34:55.005Z,20.53
2018-02-04T15:37:22.566Z,23.47
2018-02-04T15:39:50.124Z,25.70
2018-02-04T15:42:17.594Z,21.13
2018-02-04T15:44:45.141Z,20.77
2018-02-04T15:47:12.905Z,19.50
2018-02-04T15:49:40.465Z,24.40
2018-02-04T15:52:07.963Z,17.93
2018-02-04T15:54:35.394Z,19.80
2018-02-04T15:57:03.075Z,20.00
2018-02-04T15:59:30.599Z,24.30
2018-02-04T16:01:58.262Z,21.23
2018-02-04T16:04:25.711Z,21.03
2018-02-04T16:06:53.279Z,22.80
2018-02-04T16:09:20.837Z,21.20
2018-02-04T16:11:48.288Z,26.93
2018-02-04T16:14:15.855Z,23.47
2018-02-04T16:16:43.348Z,28.03
2018-02-04T16:19:10.805Z,24.77
2018-02-04T16:21:38.430Z,24.07
2018-02-04T16:24:05.989Z,28.57
2018-02-04T16:26:33.754Z,26.10
2018-02-04T16:29:01.253Z,24.57
2018-02-04T16:31:28.704Z,24.87
2018-02-04T16:33:56.433Z,25.67
2018-02-04T16:36:23.925Z,22.43
2018-02-04T16:38:51.449Z,26.23
2018-02-04T16:41:18.906Z,28.40
2018-02-04T16:43:46.773Z,26.30
2018-02-04T16:46:14.332Z,25.60
2018-02-04T16:48:41.844Z,26.73
2018-02-04T16:51:09.701Z,22.73
2018-02-04T16:53:37.215Z,25.87
2018-02-04T16:56:04.619Z,24.77
2018-02-04T16:58:32.440Z,32.70
2018-02-04T17:00:59.996Z,33.00
2018-02-04T17:03:27.555Z,27.27
2018-02-04T17:05:55.115Z,31.57
2018-02-04T17:08:22.674Z,27.00
2018-02-04T17:10:50.234Z,40.20
2018-02-04T17:13:17.794Z,32.30
2018-02-04T17:15:45.352Z,37.43
2018-02-04T17:18:12.912Z,34.20
2018-02-04T17:20:40.471Z,36.40
2018-02-04T17:23:08.068Z,40.57
2018-02-04T17:25:35.590Z,39.87
2018-02-04T17:28:03.151Z,36.00
2018-02-04T17:30:30.812Z,38.80
2018-02-04T17:32:58.372Z,35.73
2018-02-04T17:35:25.878Z,40.73
2018-02-04T17:37:53.491Z,38.80
2018-02-04T17:40:21.049Z,39.47
2018-02-04T17:42:48.544Z,40.23
2018-02-04T17:45:16.168Z,44.87
2018-02-04T17:47:43.932Z,44.53
2018-02-04T17:50:11.493Z,33.93
2018-02-04T17:52:39.154Z,64.43
2018-02-04T17:55:07.122Z,45.63
2018-02-04T17:57:34.682Z,59.87
2018-02-04T18:00:02.345Z,48.90
2018-02-04T18:02:30.064Z,48.47
2018-02-04T18:04:57.565Z,51.60
2018-02-04T18:07:24.988Z,38.73
2018-02-04T18:09:52.480Z,41.97
2018-02-04T18:12:20.039Z,38.87
2018-02-04T18:14:47.701Z,51.20
2018-02-04T18:17:15.201Z,40.87
2018-02-04T18:19:42.717Z,41.77
2018-02-04T18:22:10.211Z,43.37
2018-02-04T18:24:37.734Z,43.17
2018-02-04T18:27:05.293Z,39.73
2018-02-04T18:29:32.853Z,43.30
2018-02-04T18:32:00.385Z,44.07
2018-02-04T18:34:27.971Z,42.23
2018-02-04T18:36:55.476Z,42.77
2018-02-04T18:39:22.988Z,45.83
2018-02-04T18:41:50.548Z,48.93
2018-02-04T18:44:18.210Z,45.60
2018-02-04T18:46:45.768Z,45.87
2018-02-04T18:49:13.328Z,52.80
2018-02-04T18:51:40.887Z,55.07
2018-02-04T18:54:08.380Z,49.37
2018-02-04T18:56:35.904Z,52.07
2018-02-04T18:59:03.463Z,54.27
2018-02-04T19:01:31.023Z,54.17
2018-02-04T19:03:58.720Z,55.37
2018-02-04T19:06:26.962Z,61.20
2018-02-04T19:08:54.456Z,58.00
2018-02-04T19:11:21.977Z,54.47
2018-02-04T19:13:49.537Z,59.47
2018-02-04T19:16:17.198Z,60.07
2018-02-04T19:18:44.962Z,58.37
2018-02-04T19:21:12.420Z,55.07
2018-02-04T19:23:39.979Z,61.93
2018-02-04T19:26:07.538Z,65.83
2018-02-04T19:28:35.302Z,64.63
2018-02-04T19:31:02.862Z,61.47
2018-02-04T19:33:30.356Z,66.90
2018-02-04T19:35:57.878Z,59.10
2018-02-04T19:38:25.439Z,65.00
2018-02-04T19:40:52.998Z,65.87
2018-02-04T19:43:20.659Z,60.87
2018-02-04T19:45:48.323Z,62.00
2018-02-04T19:48:15.881Z,69.90
2018-02-04T19:50:43.441Z,69.07
2018-02-04T19:53:11.001Z,77.90
2018-02-04T19:55:38.593Z,66.57
2018-02-04T19:58:06.221Z,64.00
2018-02-04T20:00:33.780Z,62.50
2018-02-04T20:03:01.443Z,70.67
2018-02-04T20:05:29.103Z,80.93
2018-02-04T20:07:56.696Z,71.70
2018-02-04T20:10:24.324Z,72.93
2018-02-04T20:12:52.208Z,69.10
2018-02-04T20:15:19.751Z,62.73
2018-02-04T20:17:47.310Z,73.53
2018-02-04T20:20:14.773Z,62.87
2018-02-04T20:22:42.327Z,73.40
2018-02-04T20:25:09.886Z,77.87
2018-02-04T20:27:37.447Z,79.23
2018-02-04T20:30:05.006Z,65.53
2018-02-04T20:32:38.606Z,83.50
2018-02-04T20:35:06.101Z,77.43
2018-02-04T20:37:33.625Z,79.23
2018-02-04T20:40:01.182Z,78.03
2018-02-04T20:42:28.677Z,74.97
2018-02-04T20:44:56.198Z,70.13
2018-02-04T20:47:23.757Z,65.20
2018-02-04T20:49:51.318Z,67.80
2018-02-04T20:52:18.738Z,68.93
2018-02-04T20:54:46.333Z,69.50
2018-02-04T20:57:13.893Z,77.90
2018-02-04T20:59:41.453Z,76.20
2018-02-04T21:02:09.013Z,73.90
2018-02-04T21:04:36.572Z,76.23
2018-02-04T21:07:04.120Z,70.57
2018-02-04T21:09:31.729Z,73.03
2018-02-04T21:11:59.250Z,77.47
2018-02-04T21:14:26.811Z,80.83
2018-02-04T21:16:54.369Z,79.80
2018-02-04T21:19:21.978Z,88.90
2018-02-04T21:21:49.424Z,87.73
2018-02-04T21:24:16.864Z,86.40
2018-02-04T21:26:44.335Z,79.87
2018-02-04T21:29:11.859Z,85.00
2018-02-04T21:31:39.418Z,79.43
2018-02-04T21:34:06.977Z,77.73
2018-02-04T21:36:34.539Z,79.83
2018-02-04T21:39:02.033Z,86.20
2018-02-04T21:41:29.553Z,95.27
2018-02-04T21:43:57.048Z,78.50
2018-02-04T21:46:24.570Z,79.37
2018-02-04T21:48:52.130Z,81.03
2018-02-04T21:51:19.689Z,88.97
2018-02-04T21:53:47.352Z,80.37
2018-02-04T21:56:14.910Z,82.93
2018-02-04T21:58:42.367Z,76.23
2018-02-04T22:01:09.861Z,78.07
2018-02-04T22:03:37.384Z,76.23
2018-02-04T22:06:04.944Z,82.63
2018-02-04T22:08:32.503Z,83.23
2018-02-04T22:10:59.996Z,76.30
2018-02-04T22:13:27.518Z,73.80
2018-02-04T22:15:55.012Z,75.50
2018-02-04T22:18:22.638Z,79.67
2018-02-04T22:20:50.197Z,80.53
2018-02-04T22:23:17.756Z,75.47
2018-02-04T22:25:45.521Z,87.37
2018-02-04T22:28:12.978Z,84.77
2018-02-04T22:30:40.476Z,71.23
2018-02-04T22:33:08.096Z,78.67
2018-02-04T22:35:35.655Z,82.80
2018-02-04T22:38:03.148Z,88.10
2018-02-04T22:40:30.673Z,81.30
2018-02-04T22:42:58.169Z,86.10
2018-02-04T22:45:25.624Z,78.83
2018-02-04T22:47:53.249Z,85.57
2018-02-04T22:50:20.807Z,80.40
2018-02-04T22:52:48.301Z,79.43
2018-02-04T22:55:15.824Z,94.77
2018-02-04T22:57:43.589Z,83.53
2018-02-04T23:00:11.151Z,87.30
2018-02-04T23:02:38.711Z,91.13
2018-02-04T23:05:06.267Z,85.93
2018-02-04T23:07:33.827Z,80.90
2018-02-04T23:10:01.523Z,80.30
2018-02-04T23:12:29.048Z,73.33
2018-02-04T23:14:56.609Z,72.80
2018-02-04T23:17:24.204Z,68.20
2018-02-04T23:19:51.726Z,73.80
2018-02-04T23:22:19.286Z,80.83
2018-02-04T23:24:46.844Z,66.03
2018-02-04T23:27:14.404Z,73.67
2018-02-04T23:29:41.900Z,76.63
2018-02-04T23:32:09.701Z,65.47
2018-02-04T23:34:37.185Z,69.07
2018-02-04T23:37:04.744Z,68.83
2018-02-04T23:39:32.304Z,66.50
2018-02-04T23:41:59.879Z,69.03
2018-02-04T23:44:27.427Z,73.00
2018-02-04T23:46:54.982Z,73.53
2018-02-04T23:49:22.541Z,75.03
2018-02-04T23:51:50.101Z,71.10
2018-02-04T23:54:17.512Z,78.50
2018-02-04T23:56:45.019Z,83.70
2018-02-04T23:59:12.575Z,74.17
